Time;durP1;ratioP1;P1;durP2;ratioP2;P2;SDS_P1;SDS_P2;PMS_P1;PMS_P2;Temp;Humidity;BMP_temperature;BMP_pressure;BME280_temperature;BME280_humidity;BME280_pressure;Samples;Min_cycle;Max_cycle;Signal;HPM_P1;HPM_P2
2022/06/10 00:00:23;;;;;;;1.25;1.15;;;14.40;99.90;;;;;;5058477;28;20231;-66
2022/06/10 00:02:51;;;;;;;1.10;1.00;;;14.40;99.90;;;;;;5056916;28;20275;-65
2022/06/10 00:05:23;;;;;;;0.80;0.80;;;14.40;99.90;;;;;;5054864;28;20218;-71
2022/06/10 00:07:50;;;;;;;1.23;1.13;;;14.30;99.90;;;;;;5047527;28;20208;-66
2022/06/10 00:10:20;;;;;;;1.30;1.20;;;14.20;99.90;;;;;;5049902;28;20296;-67
2022/06/10 00:12:46;;;;;;;1.20;1.10;;;14.20;99.90;;;;;;5052042;28;20224;-70
2022/06/10 00:15:15;;;;;;;0.70;0.70;;;14.10;99.90;;;;;;5045568;28;20226;-66
2022/06/10 00:17:42;;;;;;;0.80;0.80;;;14.10;99.90;;;;;;5046190;28;20205;-66
2022/06/10 00:20:12;;;;;;;1.00;1.00;;;14.00;99.90;;;;;;5049190;28;20204;-65
2022/06/10 00:22:39;;;;;;;1.13;1.00;;;14.00;99.90;;;;;;5046627;28;20231;-65
2022/06/10 00:25:07;;;;;;;1.20;1.10;;;13.90;99.90;;;;;;5052473;28;20211;-66
2022/06/10 00:27:34;;;;;;;1.50;1.07;;;13.90;99.90;;;;;;5052618;28;20204;-66
2022/06/10 00:30:01;;;;;;;0.80;0.80;;;13.80;99.90;;;;;;5052423;28;20208;-67
2022/06/10 00:32:29;;;;;;;0.90;0.90;;;13.70;99.90;;;;;;5048696;28;20686;-65
2022/06/10 00:34:56;;;;;;;1.50;1.10;;;13.70;99.90;;;;;;5051017;28;20664;-66
2022/06/10 00:37:23;;;;;;;1.10;1.10;;;13.60;99.90;;;;;;5056737;28;20697;-67
2022/06/10 00:39:50;;;;;;;1.07;0.90;;;13.60;99.90;;;;;;5051176;28;20265;-66
2022/06/10 00:42:18;;;;;;;1.07;0.97;;;13.60;99.90;;;;;;5046547;28;20228;-65
2022/06/10 00:44:52;;;;;;;0.97;0.97;;;13.60;99.90;;;;;;5048763;28;20738;-64
2022/06/10 00:47:22;;;;;;;0.90;0.90;;;13.60;99.90;;;;;;5051303;28;20212;-65
2022/06/10 00:49:55;;;;;;;1.00;1.00;;;13.60;99.90;;;;;;5048325;28;20298;-67
2022/06/10 00:52:27;;;;;;;1.00;1.00;;;13.60;99.90;;;;;;5051047;28;20227;-67
2022/06/10 00:54:55;;;;;;;0.70;0.70;;;13.60;99.90;;;;;;5047026;28;20269;-66
2022/06/10 00:57:25;;;;;;;1.40;1.20;;;13.60;99.90;;;;;;5049202;28;20572;-65
2022/06/10 00:59:55;;;;;;;1.30;1.20;;;13.50;99.90;;;;;;5052423;28;20243;-68
2022/06/10 01:02:25;;;;;;;1.70;1.30;;;13.50;99.90;;;;;;5044674;28;20235;-66
2022/06/10 01:04:55;;;;;;;1.00;1.00;;;13.50;99.90;;;;;;5042334;28;20244;-67
2022/06/10 01:07:24;;;;;;;1.20;1.10;;;13.50;99.90;;;;;;5049645;28;20288;-66
2022/06/10 01:09:53;;;;;;;1.13;1.03;;;13.50;99.90;;;;;;5058055;28;20303;-67
2022/06/10 01:12:38;;;;;;;1.00;1.00;;;13.40;99.90;;;;;;5056016;28;20236;-67
2022/06/10 01:15:14;;;;;;;1.00;1.00;;;13.30;99.90;;;;;;5049908;28;20685;-67
2022/06/10 01:17:52;;;;;;;1.00;1.00;;;13.30;99.90;;;;;;5039599;28;20231;-67
2022/06/10 01:20:29;;;;;;;1.40;1.10;;;13.40;99.90;;;;;;5054061;28;20200;-66
2022/06/10 01:23:32;;;;;;;1.17;1.10;;;13.40;99.90;;;;;;5050672;28;20801;-67
2022/06/10 01:27:47;;;;;;;0.87;0.87;;;13.40;99.90;;;;;;5048545;28;20200;-66
2022/06/10 01:29:48;;;;;;;1.00;0.93;;;13.30;99.90;;;;;;5051137;28;20204;-66
2022/06/10 01:32:27;;;;;;;1.10;1.03;;;13.10;99.90;;;;;;5048633;28;20220;-68
2022/06/10 01:35:04;;;;;;;1.10;1.10;;;13.10;99.90;;;;;;5050496;28;20295;-66
2022/06/10 01:37:39;;;;;;;1.20;0.90;;;13.10;99.90;;;;;;5040563;28;20290;-67
2022/06/10 01:40:13;;;;;;;0.90;0.90;;;13.00;99.90;;;;;;5067256;28;20677;-68
2022/06/10 01:42:46;;;;;;;1.00;1.00;;;13.00;99.90;;;;;;5069216;28;20255;-67
2022/06/10 01:45:24;;;;;;;0.80;0.80;;;13.00;99.90;;;;;;5050746;28;20227;-68
2022/06/10 01:47:57;;;;;;;0.97;0.97;;;13.10;99.90;;;;;;5053827;28;20208;-67
2022/06/10 01:50:30;;;;;;;1.00;1.00;;;13.10;99.90;;;;;;5051729;28;20287;-65
2022/06/10 01:53:01;;;;;;;1.07;1.00;;;13.00;99.90;;;;;;5049974;28;20229;-68
2022/06/10 01:55:34;;;;;;;0.90;0.90;;;13.00;99.90;;;;;;5050931;28;20299;-67
2022/06/10 01:58:08;;;;;;;1.00;1.00;;;12.90;99.90;;;;;;5048723;28;20208;-66
2022/06/10 02:00:37;;;;;;;0.90;0.90;;;12.90;99.90;;;;;;5048174;28;20226;-65
2022/06/10 02:03:12;;;;;;;0.90;0.90;;;12.80;99.90;;;;;;5045936;28;20339;-67
2022/06/10 02:05:45;;;;;;;1.00;1.00;;;12.80;99.90;;;;;;5050580;28;20565;-67
2022/06/10 02:08:18;;;;;;;1.30;1.20;;;12.80;99.90;;;;;;5052580;28;20620;-66
2022/06/10 02:10:52;;;;;;;1.30;1.20;;;12.80;99.90;;;;;;5049723;28;20218;-65
2022/06/10 02:13:25;;;;;;;1.10;1.10;;;12.80;99.90;;;;;;5049935;28;20671;-65
2022/06/10 02:15:55;;;;;;;0.90;0.90;;;12.70;99.90;;;;;;5047483;28;20212;-65
2022/06/10 02:18:30;;;;;;;1.63;1.20;;;12.70;99.90;;;;;;5053244;28;20200;-68
2022/06/10 02:21:09;;;;;;;1.27;1.17;;;12.60;99.90;;;;;;5047717;28;20206;-66
2022/06/10 02:23:39;;;;;;;0.90;0.90;;;12.60;99.90;;;;;;5040161;28;20231;-66
2022/06/10 02:26:08;;;;;;;1.08;1.08;;;12.50;99.90;;;;;;5044196;28;20190;-68
2022/06/10 02:28:38;;;;;;;0.97;0.97;;;12.60;99.90;;;;;;5068911;22;20323;-63
2022/06/10 02:31:10;;;;;;;1.10;1.07;;;12.60;99.90;;;;;;5060286;28;20286;-62
2022/06/10 02:33:39;;;;;;;1.03;1.03;;;12.60;99.90;;;;;;5060202;28;20286;-65
2022/06/10 02:36:12;;;;;;;1.10;1.00;;;12.60;99.90;;;;;;5054864;28;20330;-63
2022/06/10 02:38:52;;;;;;;1.00;1.00;;;12.50;99.90;;;;;;5075536;28;20250;-63
2022/06/10 02:41:27;;;;;;;1.63;1.20;;;12.50;99.90;;;;;;5070692;28;20208;-64
2022/06/10 02:44:03;;;;;;;1.20;1.10;;;12.50;99.90;;;;;;5076268;28;20200;-65
2022/06/10 02:46:35;;;;;;;0.97;0.97;;;12.50;99.90;;;;;;5072899;28;20225;-65
2022/06/10 02:49:08;;;;;;;1.20;0.97;;;12.50;99.90;;;;;;5075069;28;20205;-62
2022/06/10 02:51:36;;;;;;;0.90;0.90;;;12.50;99.90;;;;;;5079865;28;20726;-64
2022/06/10 02:54:06;;;;;;;1.00;1.00;;;12.40;99.90;;;;;;5073879;28;20226;-60
2022/06/10 02:56:33;;;;;;;1.10;1.10;;;12.40;99.90;;;;;;5068488;28;20235;-63
2022/06/10 03:01:58;;;;;;;1.13;1.00;;;12.30;99.90;;;;;;5096393;28;20209;-65
2022/06/10 03:04:39;;;;;;;1.20;1.10;;;12.30;99.90;;;;;;5102074;28;20225;-64
2022/06/10 03:07:30;;;;;;;0.90;0.90;;;12.30;99.90;;;;;;5083627;28;20865;-64
2022/06/10 03:10:05;;;;;;;0.93;0.93;;;12.30;99.90;;;;;;5072923;28;20245;-66
2022/06/10 03:12:38;;;;;;;0.80;0.80;;;12.30;99.90;;;;;;5071889;28;20234;-64
2022/06/10 03:15:23;;;;;;;0.90;0.90;;;12.20;99.90;;;;;;5080553;28;20250;-64
2022/06/10 03:18:01;;;;;;;1.33;1.00;;;12.10;99.90;;;;;;5069061;28;20229;-66
2022/06/10 03:20:38;;;;;;;1.20;1.10;;;12.10;99.90;;;;;;5073548;28;20218;-64
2022/06/10 03:23:22;;;;;;;1.70;1.27;;;12.10;99.90;;;;;;5075368;28;20687;-62
2022/06/10 03:25:52;;;;;;;1.03;1.03;;;12.10;99.90;;;;;;5077931;28;20195;-64
2022/06/10 03:28:24;;;;;;;1.30;1.20;;;12.00;99.90;;;;;;5072020;28;20361;-64
2022/06/10 03:31:03;;;;;;;0.90;0.90;;;12.00;99.90;;;;;;5077938;28;20287;-64
2022/06/10 03:33:34;;;;;;;1.30;1.30;;;12.00;99.90;;;;;;5069075;28;20234;-64
2022/06/10 03:36:06;;;;;;;1.00;1.00;;;12.00;99.90;;;;;;5068622;28;20221;-62
2022/06/10 03:38:38;;;;;;;1.20;1.10;;;12.10;99.90;;;;;;5077950;28;20313;-64
2022/06/10 03:41:05;;;;;;;0.87;0.87;;;12.10;99.90;;;;;;5079185;28;20226;-62
2022/06/10 03:43:39;;;;;;;1.00;1.00;;;12.00;99.90;;;;;;5071089;28;20728;-65
2022/06/10 03:46:09;;;;;;;1.13;1.13;;;12.00;99.90;;;;;;5077734;28;20214;-63
2022/06/10 03:48:39;;;;;;;1.20;1.13;;;12.00;99.90;;;;;;5075891;28;20273;-63
2022/06/10 03:51:09;;;;;;;1.50;1.27;;;12.00;99.90;;;;;;5075121;28;20203;-64
2022/06/10 03:53:36;;;;;;;0.90;0.90;;;12.00;99.90;;;;;;5076260;28;20745;-64
2022/06/10 03:56:04;;;;;;;1.30;1.20;;;12.20;99.90;;;;;;5077153;28;20310;-65
2022/06/10 03:58:31;;;;;;;1.00;1.00;;;12.10;99.90;;;;;;5070654;28;20258;-63
2022/06/10 04:00:58;;;;;;;0.90;0.90;;;12.10;99.90;;;;;;5085431;28;20245;-64
2022/06/10 04:03:25;;;;;;;1.10;1.05;;;12.10;99.90;;;;;;5067484;28;20600;-64
2022/06/10 04:05:52;;;;;;;1.23;1.20;;;12.10;99.90;;;;;;5084940;28;20234;-63
2022/06/10 04:08:21;;;;;;;1.13;1.10;;;12.00;99.90;;;;;;5074744;28;20261;-64
2022/06/10 04:10:48;;;;;;;1.20;1.07;;;12.10;99.90;;;;;;5069519;28;20200;-63
2022/06/10 04:13:17;;;;;;;1.20;1.10;;;12.10;99.90;;;;;;5070080;28;20633;-62
2022/06/10 04:15:44;;;;;;;0.93;0.93;;;12.10;99.90;;;;;;5073435;28;20199;-63
2022/06/10 04:18:12;;;;;;;1.00;1.00;;;12.00;99.90;;;;;;5073042;28;20590;-65
2022/06/10 04:20:41;;;;;;;0.97;0.97;;;12.00;99.90;;;;;;5066259;28;20214;-64
2022/06/10 04:23:09;;;;;;;0.90;0.90;;;12.10;99.90;;;;;;5071785;28;20203;-64
2022/06/10 04:25:39;;;;;;;1.00;1.00;;;12.10;99.90;;;;;;5063186;28;20556;-63
2022/06/10 04:28:07;;;;;;;1.03;1.00;;;12.10;99.90;;;;;;5065992;28;20310;-65
2022/06/10 04:30:36;;;;;;;1.20;1.10;;;12.10;99.90;;;;;;5059816;28;20736;-65
2022/06/10 04:33:04;;;;;;;1.07;1.07;;;12.00;99.90;;;;;;5070820;28;20200;-63
2022/06/10 04:35:32;;;;;;;1.00;1.00;;;12.10;99.90;;;;;;5067039;28;20245;-62
2022/06/10 04:37:59;;;;;;;0.90;0.90;;;12.20;99.90;;;;;;5072881;28;20231;-63
2022/06/10 04:40:28;;;;;;;1.30;0.97;;;12.20;99.90;;;;;;5068683;28;20203;-62
2022/06/10 04:42:57;;;;;;;0.90;0.90;;;12.30;99.90;;;;;;5074964;28;20683;-65
2022/06/10 04:45:27;;;;;;;0.97;0.97;;;12.30;99.90;;;;;;5074398;28;20292;-63
2022/06/10 04:47:54;;;;;;;1.00;1.00;;;12.30;99.90;;;;;;5071645;28;20635;-64
2022/06/10 04:50:23;;;;;;;1.00;1.00;;;12.40;99.90;;;;;;5074496;28;20211;-63
2022/06/10 04:52:51;;;;;;;1.30;1.17;;;12.50;99.90;;;;;;5074045;28;20295;-63
2022/06/10 04:55:19;;;;;;;0.80;0.80;;;12.60;99.90;;;;;;5073871;28;20680;-63
2022/06/10 04:57:46;;;;;;;1.30;1.20;;;12.70;99.90;;;;;;5073627;28;20247;-63
2022/06/10 05:00:19;;;;;;;0.90;0.90;;;12.80;99.90;;;;;;5076874;28;20282;-64
2022/06/10 05:02:46;;;;;;;0.70;0.70;;;12.90;99.90;;;;;;5070935;28;20286;-63
2022/06/10 05:05:13;;;;;;;1.03;1.00;;;12.90;99.90;;;;;;5074517;28;20222;-65
2022/06/10 05:07:40;;;;;;;1.20;1.10;;;13.00;99.90;;;;;;5077847;28;20760;-62
2022/06/10 05:10:08;;;;;;;1.33;1.10;;;13.20;99.90;;;;;;5074354;28;20207;-64
2022/06/10 05:12:35;;;;;;;1.20;1.10;;;13.40;99.90;;;;;;5073830;28;20210;-64
2022/06/10 05:15:02;;;;;;;1.00;1.00;;;13.50;99.90;;;;;;5073324;28;20253;-63
2022/06/10 05:17:31;;;;;;;1.00;1.00;;;13.70;99.90;;;;;;5072549;28;20231;-64
2022/06/10 05:19:57;;;;;;;1.10;1.10;;;13.90;99.90;;;;;;5074036;28;20287;-65
2022/06/10 05:22:24;;;;;;;1.57;1.03;;;14.10;99.90;;;;;;5071872;28;20637;-63
2022/06/10 05:24:51;;;;;;;1.20;1.10;;;14.40;99.90;;;;;;5072862;28;20198;-64
2022/06/10 05:27:18;;;;;;;0.90;0.90;;;14.50;99.90;;;;;;5074791;28;20768;-62
2022/06/10 05:29:45;;;;;;;1.53;1.00;;;14.70;99.90;;;;;;5075329;28;20287;-63
2022/06/10 05:32:12;;;;;;;1.00;1.00;;;14.80;99.90;;;;;;5077602;28;20199;-62
2022/06/10 05:34:46;;;;;;;1.23;1.02;;;15.00;99.90;;;;;;5073285;28;20254;-63
2022/06/10 05:37:15;;;;;;;1.10;1.00;;;15.20;99.90;;;;;;5075837;28;20309;-63
2022/06/10 05:39:43;;;;;;;1.00;1.00;;;15.30;99.90;;;;;;5072254;28;20223;-62
2022/06/10 05:42:10;;;;;;;0.87;0.87;;;15.40;99.90;;;;;;5076317;28;20199;-63
2022/06/10 05:44:39;;;;;;;0.90;0.90;;;15.50;99.90;;;;;;5074460;28;20629;-62
2022/06/10 05:47:08;;;;;;;1.25;1.20;;;15.60;99.90;;;;;;5075024;28;20298;-62
2022/06/10 05:49:36;;;;;;;1.10;1.00;;;15.70;99.90;;;;;;5073357;28;20220;-62
2022/06/10 05:52:06;;;;;;;1.00;1.00;;;15.90;99.90;;;;;;5072059;28;20205;-63
2022/06/10 05:54:33;;;;;;;0.97;0.93;;;16.00;99.90;;;;;;5074970;28;20406;-63
2022/06/10 05:57:00;;;;;;;1.20;1.00;;;16.20;99.90;;;;;;5066760;28;20320;-64
2022/06/10 05:59:29;;;;;;;1.50;1.20;;;16.40;99.90;;;;;;5064868;28;20243;-63
2022/06/10 06:01:56;;;;;;;0.95;0.95;;;16.50;99.90;;;;;;5073747;28;20219;-63
2022/06/10 06:04:23;;;;;;;0.80;0.80;;;16.60;99.90;;;;;;5072255;28;20281;-63
2022/06/10 06:06:50;;;;;;;1.00;1.00;;;16.70;99.90;;;;;;5080907;28;20230;-64
2022/06/10 06:09:20;;;;;;;1.10;1.10;;;16.80;99.90;;;;;;5074481;28;20207;-63
2022/06/10 06:11:48;;;;;;;1.00;0.90;;;16.90;99.90;;;;;;5076080;28;20202;-66
2022/06/10 06:14:17;;;;;;;1.00;1.00;;;17.00;99.90;;;;;;5073009;28;20203;-64
2022/06/10 06:16:46;;;;;;;0.73;0.73;;;17.10;99.90;;;;;;5072624;28;20274;-64
2022/06/10 06:19:13;;;;;;;1.23;1.13;;;17.10;99.90;;;;;;5076339;28;20283;-64
2022/06/10 06:21:39;;;;;;;1.13;1.03;;;17.30;99.90;;;;;;5072817;28;20208;-64
2022/06/10 06:24:07;;;;;;;0.80;0.80;;;17.40;99.90;;;;;;5081603;28;20202;-63
2022/06/10 06:26:35;;;;;;;0.90;0.90;;;17.40;99.90;;;;;;5070513;28;20273;-62
2022/06/10 06:29:02;;;;;;;0.80;0.80;;;17.50;99.90;;;;;;5069380;28;20210;-64
2022/06/10 06:31:29;;;;;;;1.00;1.00;;;17.70;99.90;;;;;;5083688;28;20200;-63
2022/06/10 06:33:56;;;;;;;0.85;0.85;;;17.90;99.90;;;;;;5078342;28;20289;-64
2022/06/10 06:36:26;;;;;;;1.00;1.00;;;18.10;99.90;;;;;;5082647;28;20616;-63
2022/06/10 06:38:53;;;;;;;0.80;0.80;;;18.20;99.90;;;;;;5080076;28;20237;-64
2022/06/10 06:41:21;;;;;;;1.10;1.10;;;18.40;99.90;;;;;;5070097;28;20271;-63
2022/06/10 06:43:50;;;;;;;0.93;0.90;;;18.50;99.90;;;;;;5075825;28;20202;-62
2022/06/10 06:46:19;;;;;;;0.90;0.90;;;18.60;99.90;;;;;;5067985;28;20228;-62
2022/06/10 06:48:46;;;;;;;0.60;0.60;;;18.70;99.90;;;;;;5078889;28;20231;-62
2022/06/10 06:51:13;;;;;;;1.30;1.10;;;18.80;99.90;;;;;;5063847;28;20232;-65
2022/06/10 06:53:40;;;;;;;0.83;0.83;;;18.90;99.90;;;;;;5084127;28;20245;-62
2022/06/10 06:56:08;;;;;;;1.25;1.10;;;19.10;99.90;;;;;;5080205;28;20207;-63
2022/06/10 06:58:35;;;;;;;1.00;1.00;;;19.20;99.90;;;;;;5074821;28;20330;-63
2022/06/10 07:01:03;;;;;;;0.90;0.90;;;19.30;99.90;;;;;;5087455;28;20234;-63
2022/06/10 07:03:30;;;;;;;1.05;0.95;;;19.40;99.90;;;;;;5082343;28;20268;-63
2022/06/10 07:05:57;;;;;;;1.00;1.00;;;19.60;99.90;;;;;;5083201;28;20209;-63
2022/06/10 07:08:31;;;;;;;1.00;1.00;;;19.70;99.90;;;;;;5079946;28;20223;-63
2022/06/10 07:10:59;;;;;;;1.00;1.00;;;19.80;99.90;;;;;;5083016;28;20305;-61
2022/06/10 07:13:26;;;;;;;0.83;0.83;;;20.00;99.90;;;;;;5079934;28;20223;-61
2022/06/10 07:15:54;;;;;;;1.00;1.00;;;20.10;99.90;;;;;;5082077;28;20235;-62
2022/06/10 07:18:22;;;;;;;1.20;1.10;;;20.20;99.90;;;;;;5064973;28;20262;-62
2022/06/10 07:20:49;;;;;;;1.00;1.00;;;20.30;99.90;;;;;;5065953;28;20215;-62
2022/06/10 07:23:19;;;;;;;1.48;1.38;;;20.30;99.90;;;;;;5073659;28;20279;-61
2022/06/10 07:25:46;;;;;;;0.98;0.98;;;20.40;99.90;;;;;;5075003;28;20213;-62
2022/06/10 07:28:13;;;;;;;1.10;1.10;;;20.40;99.90;;;;;;5071179;28;20658;-62
2022/06/10 07:30:41;;;;;;;0.90;0.90;;;20.50;99.90;;;;;;5075597;28;20590;-62
2022/06/10 07:33:08;;;;;;;1.30;1.20;;;20.60;99.90;;;;;;5071039;28;20203;-61
2022/06/10 07:35:37;;;;;;;1.00;1.00;;;20.40;99.90;;;;;;5073952;28;20207;-62
2022/06/10 07:38:04;;;;;;;1.08;1.05;;;20.60;99.90;;;;;;5074248;28;20306;-62
2022/06/10 07:43:20;;;;;;;1.00;1.00;;;20.80;99.90;;;;;;5072695;28;20213;-62
2022/06/10 07:45:47;;;;;;;1.17;1.17;;;20.90;99.90;;;;;;5082772;28;20575;-63
2022/06/10 07:48:15;;;;;;;1.10;1.10;;;21.10;99.90;;;;;;5075423;28;20322;-62
2022/06/10 07:50:45;;;;;;;1.10;1.10;;;20.90;99.90;;;;;;5083472;28;20213;-62
2022/06/10 07:53:13;;;;;;;1.07;1.07;;;20.70;99.90;;;;;;5071532;28;20293;-62
2022/06/10 07:55:41;;;;;;;1.03;1.03;;;20.60;99.90;;;;;;5073053;28;20213;-62
2022/06/10 07:58:10;;;;;;;1.05;1.00;;;20.70;99.90;;;;;;5066834;28;20314;-62
2022/06/10 08:00:38;;;;;;;1.40;1.30;;;20.90;99.90;;;;;;5066154;28;20249;-62
2022/06/10 08:03:06;;;;;;;0.97;0.97;;;21.00;99.90;;;;;;5057529;28;20261;-63
2022/06/10 08:05:33;;;;;;;0.80;0.80;;;21.00;99.90;;;;;;5075406;28;20298;-63
2022/06/10 08:08:02;;;;;;;1.00;1.00;;;21.10;99.90;;;;;;5066680;28;20219;-62
2022/06/10 08:10:35;;;;;;;0.90;0.90;;;21.10;99.90;;;;;;5072127;28;20688;-62
2022/06/10 08:13:04;;;;;;;1.77;1.10;;;21.20;99.90;;;;;;5075353;28;20261;-64
2022/06/10 08:15:32;;;;;;;1.00;1.00;;;21.40;99.90;;;;;;5068699;28;20210;-62
2022/06/10 08:17:59;;;;;;;0.87;0.80;;;21.60;99.90;;;;;;5077460;28;20249;-64
2022/06/10 08:23:10;;;;;;;1.25;1.15;;;21.40;99.90;;;;;;5074278;28;20237;-64
2022/06/10 08:25:37;;;;;;;0.80;0.80;;;21.30;99.90;;;;;;5068315;28;20214;-63
2022/06/10 08:28:05;;;;;;;1.02;1.02;;;21.50;99.90;;;;;;5111677;22;20241;-66
2022/06/10 08:30:34;;;;;;;1.05;1.00;;;21.50;99.90;;;;;;5084869;28;20282;-65
2022/06/10 08:33:03;;;;;;;0.90;0.90;;;21.60;99.90;;;;;;5093114;28;20275;-67
2022/06/10 08:35:30;;;;;;;1.00;1.00;;;21.70;99.90;;;;;;5090267;28;20237;-65
2022/06/10 08:37:56;;;;;;;0.93;0.93;;;21.90;99.90;;;;;;5089363;28;20253;-66
2022/06/10 08:40:33;;;;;;;0.90;0.90;;;22.00;99.90;;;;;;5075809;28;20250;-66
2022/06/10 08:43:06;;;;;;;1.10;1.10;;;22.10;99.90;;;;;;5076016;28;20256;-66
2022/06/10 08:45:39;;;;;;;1.20;1.10;;;22.10;99.90;;;;;;5074218;28;20203;-65
2022/06/10 08:48:16;;;;;;;1.38;1.20;;;22.10;99.90;;;;;;5076683;28;20219;-64
2022/06/10 08:50:55;;;;;;;1.20;1.10;;;21.90;99.90;;;;;;5076641;28;20214;-64
2022/06/10 08:53:34;;;;;;;0.88;0.88;;;21.90;99.90;;;;;;5076249;28;20202;-67
2022/06/10 08:56:11;;;;;;;1.00;1.00;;;21.90;99.90;;;;;;5072210;28;20555;-65
2022/06/10 08:58:43;;;;;;;0.80;0.80;;;21.90;99.90;;;;;;5069908;28;20254;-66
2022/06/10 09:01:16;;;;;;;0.98;0.88;;;22.20;99.90;;;;;;5079697;28;20203;-65
2022/06/10 09:03:47;;;;;;;1.00;1.00;;;22.50;99.90;;;;;;5075722;28;20669;-66
2022/06/10 09:06:20;;;;;;;1.08;1.00;;;22.50;99.90;;;;;;5075465;28;20249;-64
2022/06/10 09:08:51;;;;;;;1.30;1.20;;;22.70;99.90;;;;;;5076347;28;20718;-65
2022/06/10 09:11:25;;;;;;;1.00;1.00;;;22.90;99.90;;;;;;5067342;28;20209;-66
2022/06/10 09:13:56;;;;;;;1.00;1.00;;;23.00;99.90;;;;;;5070884;28;20645;-64
2022/06/10 09:16:28;;;;;;;1.10;1.10;;;22.90;99.90;;;;;;5065905;28;20227;-66
2022/06/10 09:19:04;;;;;;;0.82;0.82;;;22.80;99.90;;;;;;5068405;28;20295;-66
2022/06/10 09:21:42;;;;;;;1.00;1.00;;;22.90;99.90;;;;;;5063750;28;20205;-68
2022/06/10 09:24:13;;;;;;;1.00;1.00;;;23.10;99.90;;;;;;5063160;28;20307;-65
2022/06/10 09:26:44;;;;;;;0.93;0.93;;;23.10;99.90;;;;;;5066261;28;20207;-67
2022/06/10 09:29:14;;;;;;;0.90;0.90;;;23.20;99.90;;;;;;5061524;28;20314;-66
2022/06/10 09:31:42;;;;;;;1.17;1.15;;;23.00;99.90;;;;;;5068049;28;20294;-70
2022/06/10 09:34:25;;;;;;;1.50;1.40;;;23.00;99.90;;;;;;5061561;28;20243;-65
2022/06/10 09:37:01;;;;;;;0.95;0.95;;;22.80;99.90;;;;;;5074089;28;20227;-66
2022/06/10 09:42:36;;;;;;;1.30;1.20;;;23.00;99.90;;;;;;5077900;28;20291;-66
2022/06/10 09:45:12;;;;;;;0.98;0.98;;;22.80;99.90;;;;;;5075041;28;20265;-65
2022/06/10 09:47:55;;;;;;;0.90;0.90;;;22.70;99.90;;;;;;5074729;28;20293;-64
2022/06/10 09:50:31;;;;;;;0.95;0.95;;;22.80;99.90;;;;;;5075960;28;20206;-66
2022/06/10 09:53:30;;;;;;;0.98;0.98;;;23.00;99.90;;;;;;5074883;28;20205;-66
2022/06/10 09:56:19;;;;;;;1.15;1.10;;;23.10;99.90;;;;;;5070463;28;20203;-66
2022/06/10 09:59:12;;;;;;;1.08;0.98;;;22.90;99.90;;;;;;5072070;28;20231;-65
2022/06/10 10:01:44;;;;;;;1.00;1.00;;;23.30;99.90;;;;;;5072335;28;20703;-67
2022/06/10 10:04:50;;;;;;;0.90;0.90;;;23.40;99.90;;;;;;5083969;28;20587;-65
2022/06/10 10:07:25;;;;;;;0.80;0.80;;;23.20;99.90;;;;;;5074379;28;20231;-65
2022/06/10 10:10:02;;;;;;;1.17;0.85;;;23.20;99.90;;;;;;5075295;28;20254;-66
2022/06/10 10:12:40;;;;;;;1.17;1.08;;;23.30;99.90;;;;;;5069468;28;20206;-65
2022/06/10 10:15:25;;;;;;;1.40;1.00;;;23.30;99.90;;;;;;5072365;28;20199;-63
2022/06/10 10:18:30;;;;;;;0.80;0.80;;;23.10;99.90;;;;;;5067847;28;20217;-66
2022/06/10 10:21:11;;;;;;;1.00;1.00;;;23.10;99.90;;;;;;4989817;28;20206;-66
2022/06/10 10:23:41;;;;;;;1.50;1.40;;;23.30;99.90;;;;;;5058871;28;20203;-66
2022/06/10 10:26:18;;;;;;;1.27;1.13;;;23.40;99.90;;;;;;5066777;28;20210;-64
2022/06/10 10:28:46;;;;;;;1.08;1.00;;;23.70;99.90;;;;;;5072536;28;20227;-65
2022/06/10 10:31:19;;;;;;;1.05;1.05;;;23.70;99.90;;;;;;5082164;28;20219;-66
2022/06/10 10:33:46;;;;;;;1.25;1.13;;;23.70;99.90;;;;;;5077236;28;20666;-64
2022/06/10 10:36:21;;;;;;;1.20;1.10;;;23.80;99.90;;;;;;5085189;28;20286;-66
2022/06/10 10:38:48;;;;;;;0.90;0.90;;;24.10;99.90;;;;;;5068100;28;20365;-64
2022/06/10 10:41:31;;;;;;;0.95;0.88;;;24.00;99.90;;;;;;5073422;28;20207;-66
2022/06/10 10:44:01;;;;;;;0.98;0.98;;;24.10;99.90;;;;;;5069455;28;20203;-64
2022/06/10 10:46:33;;;;;;;1.27;1.17;;;23.80;99.90;;;;;;5072010;28;20195;-68
2022/06/10 10:49:04;;;;;;;1.23;1.13;;;23.70;99.90;;;;;;5078053;28;20708;-65
2022/06/10 10:51:38;;;;;;;1.20;1.15;;;23.70;99.90;;;;;;5067211;28;20195;-64
2022/06/10 10:54:13;;;;;;;0.90;0.90;;;23.80;99.90;;;;;;5070393;28;20211;-64
2022/06/10 10:56:41;;;;;;;1.00;1.00;;;24.00;99.90;;;;;;5073294;28;20735;-64
2022/06/10 10:59:31;;;;;;;0.90;0.90;;;24.40;99.90;;;;;;5072079;28;20262;-64
2022/06/10 11:02:01;;;;;;;1.00;0.90;;;24.30;99.90;;;;;;5074654;28;20203;-64
2022/06/10 11:04:31;;;;;;;0.90;0.90;;;24.30;99.90;;;;;;5063951;28;20199;-66
2022/06/10 11:07:06;;;;;;;0.82;0.82;;;24.50;99.90;;;;;;5072442;28;20234;-65
2022/06/10 11:09:42;;;;;;;1.20;1.10;;;24.60;99.90;;;;;;5061249;28;20251;-66
2022/06/10 11:12:16;;;;;;;1.30;1.10;;;24.40;99.90;;;;;;5061960;28;20204;-65
2022/06/10 11:14:47;;;;;;;0.90;0.90;;;24.40;99.90;;;;;;5061555;28;20200;-66
2022/06/10 11:17:19;;;;;;;1.00;1.00;;;24.40;99.90;;;;;;5061787;28;20200;-67
2022/06/10 11:19:53;;;;;;;0.90;0.90;;;24.60;99.90;;;;;;5060379;28;20255;-66
2022/06/10 11:22:41;;;;;;;1.00;1.00;;;24.80;99.90;;;;;;5062994;28;20195;-65
2022/06/10 11:25:29;;;;;;;0.90;0.90;;;24.90;99.90;;;;;;5051578;28;20211;-66
2022/06/10 11:28:00;;;;;;;1.10;1.10;;;25.00;99.90;;;;;;5057440;28;20203;-67
2022/06/10 11:30:36;;;;;;;1.00;1.00;;;25.00;99.90;;;;;;5068502;28;20200;-64
2022/06/10 11:33:06;;;;;;;0.98;0.98;;;25.10;99.90;;;;;;5062854;28;20199;-66
2022/06/10 11:35:36;;;;;;;0.90;0.90;;;25.10;99.90;;;;;;5060075;28;20218;-65
2022/06/10 11:38:06;;;;;;;1.55;1.13;;;25.00;99.90;;;;;;5068099;28;20239;-65
2022/06/10 11:40:50;;;;;;;1.20;1.10;;;25.10;99.90;;;;;;5072525;28;20213;-66
2022/06/10 11:43:22;;;;;;;1.02;1.00;;;25.10;99.90;;;;;;5073148;28;20280;-65
2022/06/10 11:45:55;;;;;;;1.10;1.00;;;25.10;99.90;;;;;;5080299;28;20195;-66
2022/06/10 11:48:33;;;;;;;0.90;0.90;;;25.10;99.90;;;;;;5072368;28;20242;-65
2022/06/10 11:51:04;;;;;;;0.93;0.93;;;25.20;99.90;;;;;;5072533;28;20649;-65
2022/06/10 11:53:40;;;;;;;0.90;0.90;;;25.20;99.90;;;;;;5072963;28;20207;-65
2022/06/10 12:01:51;;;;;;;0.80;0.80;;;25.50;99.90;;;;;;5067004;28;20206;-67
2022/06/10 12:04:26;;;;;;;1.40;1.00;;;25.60;99.90;;;;;;5072674;28;20294;-66
2022/06/10 12:06:55;;;;;;;1.33;1.00;;;25.50;99.90;;;;;;5073465;28;20554;-67
2022/06/10 12:09:28;;;;;;;1.17;1.08;;;25.40;99.90;;;;;;5080732;28;20219;-67
2022/06/10 12:12:00;;;;;;;0.90;0.90;;;25.20;99.90;;;;;;5089511;28;20243;-66
2022/06/10 12:14:32;;;;;;;0.80;0.80;;;25.30;99.90;;;;;;5090030;28;20286;-67
2022/06/10 12:17:04;;;;;;;0.73;0.73;;;25.50;99.90;;;;;;5088993;28;20238;-67
2022/06/10 12:19:37;;;;;;;0.70;0.70;;;25.80;99.90;;;;;;5071427;28;20277;-66
2022/06/10 12:22:04;;;;;;;1.10;1.08;;;25.90;99.90;;;;;;5073171;28;20302;-67
2022/06/10 12:24:32;;;;;;;1.45;1.10;;;25.70;99.90;;;;;;5075947;28;20214;-66
2022/06/10 12:27:00;;;;;;;0.80;0.80;;;25.70;99.90;;;;;;5087277;28;20203;-66
2022/06/10 12:29:38;;;;;;;0.88;0.88;;;25.90;99.90;;;;;;5083463;28;20232;-66
2022/06/10 12:32:14;;;;;;;1.00;1.00;;;26.00;99.90;;;;;;5069605;28;20282;-66
2022/06/10 12:35:03;;;;;;;0.85;0.85;;;26.00;99.90;;;;;;5071626;28;20211;-66
2022/06/10 12:37:38;;;;;;;1.13;1.02;;;25.80;99.90;;;;;;5067068;28;20286;-64
2022/06/10 12:40:13;;;;;;;0.80;0.80;;;25.90;99.90;;;;;;5072231;28;20287;-65
2022/06/10 12:42:45;;;;;;;1.08;1.08;;;26.00;99.90;;;;;;5072518;28;20209;-65
2022/06/10 12:45:25;;;;;;;1.00;0.85;;;26.00;99.90;;;;;;5071058;28;20206;-65
2022/06/10 12:47:57;;;;;;;0.90;0.90;;;26.20;99.90;;;;;;5071190;28;20221;-67
2022/06/10 12:50:29;;;;;;;1.00;1.00;;;26.30;99.90;;;;;;5070148;28;20286;-65
2022/06/10 12:53:18;;;;;;;1.00;0.90;;;26.40;99.90;;;;;;5071717;28;20199;-65
2022/06/10 12:55:48;;;;;;;1.17;1.08;;;26.50;99.90;;;;;;5065745;28;20615;-66
2022/06/10 12:58:41;;;;;;;0.90;0.90;;;26.50;99.90;;;;;;5071166;28;20717;-65
2022/06/10 13:01:14;;;;;;;0.90;0.90;;;26.70;99.90;;;;;;5075155;28;20203;-65
2022/06/10 13:03:42;;;;;;;0.98;0.98;;;26.80;99.90;;;;;;5077580;28;20338;-66
2022/06/10 13:06:47;;;;;;;0.80;0.80;;;26.90;99.90;;;;;;5077985;28;20229;-66
2022/06/10 13:09:30;;;;;;;1.00;1.00;;;26.80;99.90;;;;;;5075850;28;20215;-67
2022/06/10 13:11:58;;;;;;;1.33;0.95;;;26.60;99.90;;;;;;5075441;28;20211;-65
2022/06/10 13:14:42;;;;;;;1.45;0.90;;;26.50;99.90;;;;;;5074206;28;20286;-67
2022/06/10 13:17:18;;;;;;;0.90;0.90;;;26.50;99.90;;;;;;5073079;28;20195;-65
2022/06/10 13:20:16;;;;;;;1.10;1.10;;;26.60;99.90;;;;;;5074969;28;20634;-65
2022/06/10 13:22:45;;;;;;;0.88;0.80;;;26.60;99.90;;;;;;5073210;28;20249;-67
2022/06/10 13:25:23;;;;;;;1.10;1.00;;;26.40;99.90;;;;;;5074030;28;20294;-65
2022/06/10 13:27:51;;;;;;;0.85;0.75;;;26.40;99.90;;;;;;5074487;28;20602;-67
2022/06/10 13:30:21;;;;;;;0.90;0.90;;;26.20;99.90;;;;;;5074342;28;20757;-65